Terminal Aerodrome Forecast
Issued by NWS

Home | Current Version | Previous Version | Text Only | Print | Product List | Glossary On
Versions: 1 2 3 4 5 6 7 8 9 10 11 12
039
FTUS42 KMHX 230531
TAFOAJ
TAF
KOAJ 230531Z 2306/2406 VRB03KT P6SM SCT030
      TEMPO 2308/2312 4SM BR BKN020
     FM231300 10010G15KT P6SM SCT030
     FM231800 14013G20KT P6SM SCT020 BKN040
     FM232100 16011G20KT P6SM VCSH SCT020 OVC025
     FM240200 17011G18KT 4SM -SHRA VCTS SCT020CB OVC040
      AMD LTD TO CLD VIS AND WIND=

USA.gov is the U.S. government's official web portal to all federal, state and local government web resources and services.